Time;durP1;ratioP1;P1;durP2;ratioP2;P2;SDS_P1;SDS_P2;PMS_P1;PMS_P2;Temp;Humidity;BMP_temperature;BMP_pressure;BME280_temperature;BME280_humidity;BME280_pressure;Samples;Min_cycle;Max_cycle;Signal;HPM_P1;HPM_P2
2022/01/18 00:00:10;;;;;;;18.12;7.40;;;;;;;-0.73;100.00;98327.50;1711911;82;21047;-71
2022/01/18 00:02:39;;;;;;;163.97;53.58;;;;;;;-0.75;100.00;98329.27;1715838;82;21030;-71
2022/01/18 00:05:12;;;;;;;117.25;40.30;;;;;;;-0.79;100.00;98325.03;1712842;83;21250;-72
2022/01/18 00:07:37;;;;;;;39.70;14.35;;;;;;;-0.79;100.00;98319.86;1719575;83;21399;-71
2022/01/18 00:10:06;;;;;;;53.35;19.92;;;;;;;-0.83;100.00;98318.22;1719739;83;21770;-72
2022/01/18 00:23:10;;;;;;;205.98;71.22;;;;;;;-0.90;100.00;98332.14;1719822;83;21063;-70
2022/01/18 00:25:38;;;;;;;119.55;40.40;;;;;;;-0.91;100.00;98338.20;1720148;83;21087;-68
2022/01/18 00:28:06;;;;;;;126.82;41.33;;;;;;;-0.94;100.00;98340.86;1719837;83;21094;-69
2022/01/18 00:36:06;;;;;;;61.02;23.65;;;;;;;-0.97;100.00;98369.32;1719915;83;21551;-71
2022/01/18 00:38:46;;;;;;;38.28;12.53;;;;;;;-0.99;100.00;98394.34;1720114;83;21082;-70
2022/01/18 00:41:13;;;;;;;28.57;10.28;;;;;;;-1.02;100.00;98399.56;1719918;83;21120;-70
2022/01/18 00:43:40;;;;;;;87.78;26.82;;;;;;;-1.08;100.00;98401.84;1720131;83;21058;-71
2022/01/18 00:46:06;;;;;;;40.75;13.70;;;;;;;-1.12;100.00;98430.73;1719952;83;21135;-71
2022/01/18 00:48:35;;;;;;;42.73;13.62;;;;;;;-1.17;100.00;98427.83;1719971;83;21051;-70
2022/01/18 00:51:06;;;;;;;187.30;52.60;;;;;;;-1.33;100.00;98460.80;1720200;83;21544;-71
2022/01/18 00:53:35;;;;;;;43.33;14.85;;;;;;;-1.57;100.00;98470.61;1720102;83;21075;-70
2022/01/18 00:56:18;;;;;;;22.42;6.75;;;;;;;-1.74;100.00;98464.84;1719872;82;21563;-72
2022/01/18 00:58:32;;;;;;;127.25;42.20;;;;;;;-1.91;100.00;98484.00;1718087;83;21849;-70
2022/01/18 01:00:58;;;;;;;247.17;76.25;;;;;;;-2.02;100.00;98483.28;1720108;82;21096;-71
2022/01/18 01:03:25;;;;;;;65.72;20.60;;;;;;;-2.12;100.00;98493.28;1719561;83;21040;-70
2022/01/18 01:05:51;;;;;;;50.43;18.42;;;;;;;-2.18;100.00;98506.27;1717849;83;21081;-71
2022/01/18 01:08:18;;;;;;;75.55;24.82;;;;;;;-2.25;100.00;98495.17;1711798;83;21041;-71
2022/01/18 01:10:44;;;;;;;19.35;8.08;;;;;;;-2.30;100.00;98533.47;1712560;82;21501;-72
2022/01/18 01:13:11;;;;;;;52.03;18.20;;;;;;;-2.37;100.00;98519.38;1711708;83;21612;-71
2022/01/18 01:18:31;;;;;;;30.10;11.18;;;;;;;-2.45;100.00;98521.16;1664274;83;21069;-72
2022/01/18 01:32:21;;;;;;;81.22;28.38;;;;;;;-2.53;100.00;98571.95;1712069;83;21574;-72
2022/01/18 01:41:40;;;;;;;22.77;8.15;;;;;;;-2.50;100.00;98576.23;1712165;83;21730;-72
2022/01/18 01:42:16;;;;;;;56.83;16.75;;;;;;;-2.56;100.00;98595.16;1670138;82;21084;-73
2022/01/18 01:44:48;;;;;;;57.70;18.85;;;;;;;-2.56;100.00;98592.59;1714680;82;21498;-72
2022/01/18 01:47:17;;;;;;;29.10;9.70;;;;;;;-2.55;100.00;98608.48;1710836;82;21546;-72
2022/01/18 01:49:42;;;;;;;89.20;29.10;;;;;;;-2.56;98.35;98590.01;1712797;82;21788;-74
2022/01/18 01:52:10;;;;;;;81.87;25.97;;;;;;;-2.64;100.00;98607.28;1711957;82;21601;-73
2022/01/18 01:54:39;;;;;;;89.77;28.40;;;;;;;-2.62;99.41;98622.30;1712639;83;21049;-71
2022/01/18 01:57:07;;;;;;;64.05;22.42;;;;;;;-2.65;97.07;98648.07;1724251;82;21103;-71
2022/01/18 01:59:34;;;;;;;39.38;13.48;;;;;;;-2.70;99.58;98634.38;1740564;82;21061;-72
2022/01/18 02:02:03;;;;;;;37.70;12.50;;;;;;;-2.79;99.33;98633.56;1739675;82;21625;-72
2022/01/18 02:04:29;;;;;;;54.25;17.70;;;;;;;-2.85;97.59;98655.53;1742005;82;21065;-69
2022/01/18 02:06:56;;;;;;;24.95;7.53;;;;;;;-2.86;98.85;98658.95;1741643;82;21076;-70
2022/01/18 02:09:22;;;;;;;31.05;11.78;;;;;;;-2.86;98.19;98651.22;1741872;82;21092;-72
2022/01/18 02:11:51;;;;;;;46.73;16.45;;;;;;;-2.87;100.00;98658.55;1742091;82;21052;-72
2022/01/18 02:14:21;;;;;;;10.68;4.10;;;;;;;-2.87;100.00;98668.84;1742109;82;22002;-73
2022/01/18 02:22:05;;;;;;;35.08;10.63;;;;;;;-2.94;100.00;98681.34;1694428;82;21705;-70
2022/01/18 02:24:32;;;;;;;42.88;15.65;;;;;;;-2.99;100.00;98679.20;1742004;82;21585;-72
2022/01/18 02:26:58;;;;;;;59.48;21.07;;;;;;;-3.02;100.00;98692.11;1742479;82;21160;-71
2022/01/18 02:29:25;;;;;;;46.50;14.45;;;;;;;-3.07;99.67;98706.73;1741834;82;21055;-70
2022/01/18 02:31:52;;;;;;;72.37;24.18;;;;;;;-3.08;99.76;98708.88;1742011;82;21122;-71
2022/01/18 02:34:20;;;;;;;70.83;23.77;;;;;;;-3.14;97.80;98725.66;1720808;82;21070;-70
2022/01/18 02:36:47;;;;;;;121.57;36.77;;;;;;;-3.21;97.63;98732.11;1741982;82;21024;-71
2022/01/18 02:39:22;;;;;;;65.32;23.67;;;;;;;-3.28;98.83;98721.42;1741782;82;21110;-70
2022/01/18 02:41:57;;;;;;;33.25;11.88;;;;;;;-3.37;96.39;98730.02;1722537;82;21070;-71
2022/01/18 02:44:25;;;;;;;31.73;13.45;;;;;;;-3.44;93.64;98749.37;1741796;82;21145;-70
2022/01/18 02:46:51;;;;;;;54.88;17.00;;;;;;;-3.51;94.18;98750.25;1741807;82;21008;-72
2022/01/18 02:49:18;;;;;;;13.03;5.83;;;;;;;-3.54;95.36;98764.39;1741739;82;21031;-72
2022/01/18 02:51:45;;;;;;;7.00;3.37;;;;;;;-3.61;95.45;98748.14;1741831;82;21875;-71
2022/01/18 02:54:17;;;;;;;9.83;4.20;;;;;;;-3.69;93.42;98779.44;1741761;82;21027;-70
2022/01/18 02:56:52;;;;;;;21.60;7.20;;;;;;;-3.74;92.81;98786.31;1742318;82;21606;-70
2022/01/18 03:05:09;;;;;;;31.52;9.33;;;;;;;-3.99;89.11;98787.61;1741719;82;21574;-72
2022/01/18 03:07:35;;;;;;;26.42;10.00;;;;;;;-4.04;88.11;98813.31;1741881;81;21913;-73
2022/01/18 03:10:05;;;;;;;36.95;12.82;;;;;;;-4.04;87.28;98817.61;1740556;82;21102;-73
2022/01/18 03:12:32;;;;;;;14.40;6.10;;;;;;;-3.98;86.48;98823.17;1720721;82;21046;-72
2022/01/18 03:14:59;;;;;;;21.87;6.33;;;;;;;-3.98;87.98;98825.74;1742079;82;21125;-73
2022/01/18 03:17:25;;;;;;;36.60;13.55;;;;;;;-3.98;87.02;98823.17;1741819;82;21997;-72
2022/01/18 03:19:52;;;;;;;22.80;8.55;;;;;;;-3.97;87.05;98840.34;1730771;82;21138;-73
2022/01/18 03:22:19;;;;;;;13.00;4.62;;;;;;;-3.99;84.83;98836.91;1701760;84;21134;-74
2022/01/18 03:29:58;;;;;;;13.58;5.03;;;;;;;-4.15;81.86;98852.30;1701654;84;21161;-72
2022/01/18 03:32:25;;;;;;;67.57;22.17;;;;;;;-4.17;82.31;98860.44;1701838;84;21063;-72
2022/01/18 03:34:51;;;;;;;17.43;5.50;;;;;;;-4.16;83.37;98863.45;1701654;84;21083;-72
2022/01/18 03:37:17;;;;;;;62.27;22.07;;;;;;;-4.11;81.95;98886.61;1702447;82;21082;-72
2022/01/18 03:39:46;;;;;;;109.20;30.40;;;;;;;-4.13;84.75;98861.31;1706204;84;21650;-74
2022/01/18 03:45:02;;;;;;;26.62;10.03;;;;;;;-4.19;86.58;98878.00;1706057;84;21138;-70
2022/01/18 03:47:26;;;;;;;30.32;10.48;;;;;;;-4.23;84.21;98885.72;1705933;83;21063;-68
2022/01/18 03:49:52;;;;;;;24.35;8.75;;;;;;;-4.23;83.79;98884.88;1706365;84;21051;-70
2022/01/18 03:52:19;;;;;;;14.98;6.15;;;;;;;-4.20;85.91;98890.01;1723843;82;21073;-72
2022/01/18 03:54:47;;;;;;;30.50;11.12;;;;;;;-4.20;83.88;98908.00;1739752;82;21149;-72
2022/01/18 03:57:15;;;;;;;7.93;3.23;;;;;;;-4.20;84.57;98912.30;1747632;82;21069;-73
2022/01/18 03:59:44;;;;;;;42.08;13.40;;;;;;;-4.19;84.22;98919.98;1747144;82;21072;-73
2022/01/18 04:02:11;;;;;;;27.48;9.90;;;;;;;-4.16;84.82;98922.59;1747560;82;21089;-72
2022/01/18 04:04:40;;;;;;;92.02;26.73;;;;;;;-4.16;84.68;98932.88;1747731;82;21009;-72
2022/01/18 04:07:07;;;;;;;67.22;23.38;;;;;;;-4.13;85.04;98934.59;1750529;81;21199;-73
2022/01/18 04:09:33;;;;;;;73.33;23.30;;;;;;;-4.11;86.11;98945.31;1755619;81;21070;-72
2022/01/18 04:12:00;;;;;;;45.52;15.08;;;;;;;-4.11;88.00;98943.17;1755964;81;22323;-73
2022/01/18 04:14:29;;;;;;;34.50;12.90;;;;;;;-4.08;87.36;98951.73;1755607;81;21064;-75
2022/01/18 04:17:12;;;;;;;55.10;16.12;;;;;;;-4.07;86.97;98950.90;1756199;81;21045;-76
2022/01/18 04:28:08;;;;;;;16.40;6.45;;;;;;;-4.09;84.27;98976.19;1723547;83;21550;-68
2022/01/18 04:30:29;;;;;;;45.55;16.55;;;;;;;-4.11;83.66;98979.17;1722504;83;21518;-65
2022/01/18 04:32:56;;;;;;;39.38;13.58;;;;;;;-4.10;84.50;98997.16;1723527;83;21161;-66
2022/01/18 04:35:22;;;;;;;32.45;10.58;;;;;;;-4.10;84.49;98993.30;1723451;83;22082;-67
2022/01/18 04:37:48;;;;;;;39.50;12.63;;;;;;;-4.08;83.94;99007.02;1723529;83;21227;-65
2022/01/18 04:40:18;;;;;;;29.02;9.70;;;;;;;-4.09;83.01;99014.31;1728118;80;21089;-68
2022/01/18 04:50:58;;;;;;;3.83;1.87;;;;;;;-4.05;82.70;99031.48;1749208;81;21073;-71
2022/01/18 04:53:27;;;;;;;12.17;4.83;;;;;;;-4.07;81.61;99049.91;1752935;81;21539;-68
2022/01/18 04:55:56;;;;;;;9.88;3.45;;;;;;;-4.05;81.64;99052.06;1754510;81;21036;-69
2022/01/18 04:58:24;;;;;;;23.00;8.03;;;;;;;-4.06;81.23;99072.61;1754536;81;21482;-69
2022/01/18 05:00:52;;;;;;;23.07;7.70;;;;;;;-4.10;83.12;99084.58;1755321;81;21052;-69
2022/01/18 05:03:18;;;;;;;24.70;8.00;;;;;;;-4.12;84.49;99088.85;1753112;81;21043;-69
2022/01/18 05:05:45;;;;;;;19.93;7.00;;;;;;;-4.13;84.49;99079.44;1750137;81;21080;-68
2022/01/18 05:08:13;;;;;;;17.40;7.20;;;;;;;-4.13;83.60;99096.58;1741312;81;21581;-68
2022/01/18 05:10:42;;;;;;;29.80;10.15;;;;;;;-4.14;83.62;99100.88;1733195;82;21590;-70
2022/01/18 05:16:07;;;;;;;7.60;2.72;;;;;;;-4.06;83.28;99099.62;1743752;81;21082;-68
2022/01/18 05:21:17;;;;;;;2.27;1.47;;;;;;;-4.05;80.74;99113.78;1716695;82;21072;-71
2022/01/18 05:23:37;;;;;;;10.50;2.47;;;;;;;-4.06;80.61;99117.19;1716567;83;21214;-69
2022/01/18 05:26:03;;;;;;;4.60;2.77;;;;;;;-4.04;80.57;99127.05;1717380;83;21081;-68
2022/01/18 05:28:30;;;;;;;11.40;4.12;;;;;;;-4.02;80.80;99121.94;1717589;83;21045;-70
2022/01/18 05:30:57;;;;;;;32.25;9.50;;;;;;;-4.03;80.23;99133.05;1735272;82;21605;-69
2022/01/18 05:33:23;;;;;;;23.15;8.28;;;;;;;-4.02;81.49;99131.78;1739925;82;21021;-68
2022/01/18 05:35:50;;;;;;;6.53;2.67;;;;;;;-4.02;82.96;99136.93;1741949;82;21078;-68
2022/01/18 05:38:16;;;;;;;7.75;3.20;;;;;;;-4.02;81.47;99134.80;1747356;82;21094;-69
2022/01/18 05:40:42;;;;;;;15.98;5.25;;;;;;;-4.05;80.56;99131.78;1743362;82;21066;-68
2022/01/18 05:43:09;;;;;;;8.47;3.20;;;;;;;-4.09;81.74;99140.32;1729423;82;21117;-67
2022/01/18 05:45:36;;;;;;;15.18;5.35;;;;;;;-4.12;80.92;99134.28;1738039;82;21097;-69
2022/01/18 05:48:03;;;;;;;4.57;1.87;;;;;;;-4.16;81.09;99141.14;1730178;82;21511;-68
2022/01/18 05:50:30;;;;;;;5.83;2.77;;;;;;;-4.18;81.15;99149.70;1730047;82;21038;-69
2022/01/18 05:52:57;;;;;;;23.10;8.20;;;;;;;-4.18;82.64;99165.98;1730356;82;21105;-68
2022/01/18 05:55:23;;;;;;;13.95;4.75;;;;;;;-4.19;83.07;99159.09;1741121;82;21039;-68
2022/01/18 05:57:51;;;;;;;6.92;3.00;;;;;;;-4.17;84.63;99162.54;1747319;82;21067;-69
2022/01/18 06:00:23;;;;;;;10.03;3.92;;;;;;;-4.17;82.00;99179.69;1752839;80;22106;-69
2022/01/18 06:03:01;;;;;;;8.68;3.55;;;;;;;-4.15;82.40;99182.70;1743079;80;21046;-68
2022/01/18 06:08:00;;;;;;;10.15;4.08;;;;;;;-4.11;82.39;99189.59;1747095;82;21083;-68
2022/01/18 06:10:26;;;;;;;15.85;5.53;;;;;;;-4.08;81.58;99196.03;1726731;82;21144;-68
2022/01/18 06:12:52;;;;;;;29.75;11.63;;;;;;;-4.05;83.51;99180.64;1714082;83;21100;-68
2022/01/18 06:15:19;;;;;;;28.02;9.90;;;;;;;-3.99;84.69;99203.39;1706104;83;21060;-69
2022/01/18 06:17:46;;;;;;;38.98;11.78;;;;;;;-3.93;83.78;99207.30;1721470;83;21543;-70
2022/01/18 06:22:49;;;;;;;45.60;15.20;;;;;;;-3.71;84.97;99214.70;1793562;79;22622;-69
2022/01/18 06:25:15;;;;;;;39.58;15.03;;;;;;;-3.69;84.54;99221.58;1756293;80;21056;-68
2022/01/18 06:27:41;;;;;;;49.45;17.52;;;;;;;-3.66;82.69;99211.32;1766218;80;21505;-67
2022/01/18 06:30:10;;;;;;;37.85;13.30;;;;;;;-3.66;84.55;99198.45;1760066;80;21107;-68
2022/01/18 06:32:39;;;;;;;21.07;7.50;;;;;;;-3.60;80.83;99215.19;1754216;78;21030;-69
2022/01/18 06:35:07;;;;;;;25.45;9.28;;;;;;;-3.57;80.42;99219.92;1755647;78;21608;-70
2022/01/18 06:37:34;;;;;;;10.70;4.00;;;;;;;-3.56;82.40;99205.78;1755489;78;21037;-69
2022/01/18 06:40:03;;;;;;;7.78;3.25;;;;;;;-3.55;79.33;99211.79;1755286;80;21518;-68
2022/01/18 06:42:31;;;;;;;9.08;4.03;;;;;;;-3.56;78.51;99213.94;1755674;78;22031;-70
2022/01/18 06:44:57;;;;;;;14.23;5.97;;;;;;;-3.56;78.82;99213.94;1755761;80;21089;-69
2022/01/18 06:47:25;;;;;;;5.90;3.02;;;;;;;-3.53;79.26;99216.52;1759832;78;21024;-69
2022/01/18 06:49:52;;;;;;;10.30;3.02;;;;;;;-3.52;77.62;99222.97;1755866;80;21069;-70
2022/01/18 06:52:18;;;;;;;15.98;5.62;;;;;;;-3.51;78.78;99204.09;1757526;78;21522;-69
2022/01/18 06:54:45;;;;;;;19.27;6.03;;;;;;;-3.49;80.78;99216.98;1756254;78;21560;-70
2022/01/18 06:57:11;;;;;;;14.05;5.17;;;;;;;-3.50;79.36;99235.83;1758505;78;21533;-69
2022/01/18 06:59:40;;;;;;;28.62;8.63;;;;;;;-3.48;78.07;99241.84;1764084;78;21151;-69
2022/01/18 07:02:07;;;;;;;32.98;8.75;;;;;;;-3.48;79.04;99250.86;1765135;78;21093;-70
2022/01/18 07:04:34;;;;;;;29.18;9.98;;;;;;;-3.49;78.20;99265.88;1767709;78;21525;-70
2022/01/18 07:07:01;;;;;;;18.98;6.80;;;;;;;-3.49;77.93;99263.31;1717955;81;21090;-70
2022/01/18 07:09:30;;;;;;;31.20;10.60;;;;;;;-3.52;77.83;99258.12;1712154;81;21101;-69
2022/01/18 07:11:56;;;;;;;79.87;23.95;;;;;;;-3.55;78.34;99268.41;1680543;82;21057;-68
2022/01/18 07:14:23;;;;;;;72.15;22.55;;;;;;;-3.52;79.15;99269.70;1728238;80;21055;-68
2022/01/18 07:16:50;;;;;;;35.73;11.57;;;;;;;-3.45;80.40;99270.17;1731052;80;22122;-68
2022/01/18 07:19:18;;;;;;;25.60;8.90;;;;;;;-3.36;77.40;99275.38;1734685;80;21570;-67
2022/01/18 07:21:44;;;;;;;17.42;6.92;;;;;;;-3.25;75.90;99276.72;1723564;80;21040;-70
2022/01/18 07:24:19;;;;;;;21.50;7.40;;;;;;;-3.07;77.36;99274.23;1725409;80;21038;-70
2022/01/18 07:26:46;;;;;;;7.12;3.62;;;;;;;-2.95;75.11;99292.30;1731797;80;21069;-70
2022/01/18 07:29:14;;;;;;;11.60;3.70;;;;;;;-2.83;74.03;99301.83;1806654;79;21080;-69
2022/01/18 07:31:41;;;;;;;3.85;1.57;;;;;;;-2.67;73.37;99310.88;1803927;79;21172;-68
2022/01/18 07:34:07;;;;;;;4.97;2.33;;;;;;;-2.55;72.20;99316.09;1713911;82;21055;-67
2022/01/18 07:36:34;;;;;;;7.60;2.83;;;;;;;-2.51;72.57;99312.64;1783319;79;21073;-67
2022/01/18 07:39:01;;;;;;;4.42;1.65;;;;;;;-2.56;72.41;99316.92;1770085;79;21543;-66
2022/01/18 07:41:28;;;;;;;3.30;1.75;;;;;;;-2.65;72.64;99328.06;1769031;79;21510;-65
2022/01/18 07:43:55;;;;;;;2.72;1.40;;;;;;;-2.66;73.38;99340.97;1759284;79;21133;-64
2022/01/18 07:46:22;;;;;;;4.80;1.45;;;;;;;-2.69;72.48;99333.20;1766960;79;21029;-64
2022/01/18 07:48:48;;;;;;;3.75;1.72;;;;;;;-2.66;73.18;99333.23;1763348;79;21636;-65
2022/01/18 07:51:16;;;;;;;5.70;2.00;;;;;;;-2.60;73.26;99343.55;1706167;82;21585;-64
2022/01/18 07:53:42;;;;;;;29.07;8.50;;;;;;;-2.52;72.90;99352.18;1772026;79;21137;-65
2022/01/18 07:56:10;;;;;;;16.85;6.35;;;;;;;-1.99;71.55;99379.82;1752219;80;21089;-65
2022/01/18 07:58:37;;;;;;;48.83;16.48;;;;;;;-1.82;70.70;99363.05;1769696;79;21094;-64
2022/01/18 08:01:05;;;;;;;20.52;7.92;;;;;;;-1.73;71.60;99375.11;1710104;82;21610;-65
2022/01/18 08:03:33;;;;;;;27.35;10.43;;;;;;;-1.71;68.12;99375.98;1779717;79;21081;-64
2022/01/18 08:06:00;;;;;;;25.08;7.97;;;;;;;-1.74;64.72;99382.44;1778388;79;21146;-65
2022/01/18 08:08:32;;;;;;;26.52;9.73;;;;;;;-1.70;63.54;99379.00;1781584;79;21088;-65
2022/01/18 08:10:58;;;;;;;3.55;1.80;;;;;;;-1.62;63.79;99386.30;1710561;83;21138;-65
2022/01/18 08:13:34;;;;;;;6.00;2.15;;;;;;;-1.18;63.35;99406.52;1770158;79;21036;-64
2022/01/18 08:16:10;;;;;;;16.20;5.58;;;;;;;-1.00;59.65;99386.26;1779033;80;21009;-63
2022/01/18 08:18:25;;;;;;;5.85;2.42;;;;;;;-1.09;60.52;99407.36;1756709;80;21133;-65
2022/01/18 08:20:52;;;;;;;9.00;3.05;;;;;;;-1.14;57.89;99405.66;1760812;80;21065;-65
2022/01/18 08:23:19;;;;;;;10.55;4.58;;;;;;;-1.22;57.49;99411.26;1709353;83;21601;-64
2022/01/18 08:25:45;;;;;;;30.88;10.53;;;;;;;-1.14;58.59;99414.27;1763840;79;21117;-65
2022/01/18 08:28:12;;;;;;;34.88;11.97;;;;;;;-0.97;57.84;99426.30;1749308;80;21064;-63
2022/01/18 08:30:39;;;;;;;48.70;15.18;;;;;;;-0.99;58.13;99422.86;1754285;80;21130;-64
2022/01/18 08:33:05;;;;;;;17.23;6.62;;;;;;;-0.96;58.00;99425.45;1762115;80;21041;-65
2022/01/18 08:35:32;;;;;;;8.05;1.87;;;;;;;-1.00;57.52;99424.59;1779016;80;21116;-66
2022/01/18 08:37:59;;;;;;;30.23;10.93;;;;;;;-1.08;57.45;99440.12;1756810;80;21077;-65
2022/01/18 08:40:26;;;;;;;15.98;5.55;;;;;;;-0.79;58.12;99434.02;1771733;80;21009;-65
2022/01/18 08:42:53;;;;;;;20.15;8.15;;;;;;;-0.31;56.32;99442.50;1765536;81;21106;-65
2022/01/18 08:45:19;;;;;;;31.90;10.38;;;;;;;-0.09;59.10;99447.56;1762977;80;21049;-66
2022/01/18 08:47:45;;;;;;;59.13;17.37;;;;;;;-0.12;56.72;99440.68;1761754;79;21570;-67
2022/01/18 08:50:12;;;;;;;26.52;11.30;;;;;;;-0.28;57.48;99441.18;1782880;79;21065;-65
2022/01/18 08:52:41;;;;;;;5.20;1.67;;;;;;;-0.34;55.54;99454.60;1768004;79;21688;-64
2022/01/18 08:55:09;;;;;;;2.70;1.02;;;;;;;-0.36;53.13;99454.59;1749797;79;21130;-64
2022/01/18 08:57:36;;;;;;;1.40;1.10;;;;;;;-0.11;53.11;99466.16;1749819;80;21006;-66
2022/01/18 09:00:04;;;;;;;4.03;1.30;;;;;;;-0.22;51.85;99461.02;1689880;83;21105;-67
2022/01/18 09:02:31;;;;;;;3.35;1.82;;;;;;;-0.32;51.44;99465.38;1762912;79;21109;-65
2022/01/18 09:04:58;;;;;;;4.33;2.20;;;;;;;-0.45;51.12;99476.18;1777651;79;21038;-66
2022/01/18 09:07:24;;;;;;;8.20;3.17;;;;;;;-0.37;52.15;99465.80;1769778;79;21141;-64
2022/01/18 09:10:01;;;;;;;3.17;1.10;;;;;;;-0.31;51.93;99474.84;1774381;80;21003;-65
2022/01/18 09:12:21;;;;;;;4.37;1.40;;;;;;;-0.34;51.19;99477.89;1704921;83;21042;-64
2022/01/18 09:14:47;;;;;;;2.35;1.05;;;;;;;-0.46;51.15;99472.30;1749990;81;21093;-63
2022/01/18 09:17:14;;;;;;;3.45;1.65;;;;;;;-0.59;51.53;99483.56;1769331;79;21073;-64
2022/01/18 09:19:40;;;;;;;9.30;2.95;;;;;;;-0.67;51.80;99490.91;1758036;79;21114;-67
2022/01/18 09:22:07;;;;;;;5.72;1.57;;;;;;;-0.78;52.37;99488.77;1747336;81;21089;-64
2022/01/18 09:24:34;;;;;;;10.10;2.20;;;;;;;-0.85;52.09;99484.47;1762908;79;21593;-64
2022/01/18 09:27:00;;;;;;;6.55;2.27;;;;;;;-0.81;52.28;99496.50;1762703;80;21049;-65
2022/01/18 09:29:31;;;;;;;7.83;2.53;;;;;;;-0.68;52.58;99490.45;1766448;80;21058;-64
2022/01/18 09:31:57;;;;;;;6.95;3.27;;;;;;;-0.51;51.74;99508.95;1772354;80;21250;-64
2022/01/18 09:34:24;;;;;;;7.25;2.58;;;;;;;-0.59;51.49;99487.44;1765332;80;21042;-66
2022/01/18 09:36:51;;;;;;;3.95;1.35;;;;;;;-0.55;51.52;99500.77;1708245;84;21109;-65
2022/01/18 09:39:17;;;;;;;3.02;1.27;;;;;;;-0.44;50.74;99500.31;1787539;80;21614;-65
2022/01/18 09:41:50;;;;;;;2.50;1.42;;;;;;;-0.51;51.30;99501.20;1741745;82;22170;-64
2022/01/18 09:44:15;;;;;;;1.92;1.02;;;;;;;-0.58;51.51;99505.52;1745361;80;21157;-64
2022/01/18 09:46:41;;;;;;;1.92;0.85;;;;;;;-0.73;51.99;99509.00;1763693;79;21081;-64
2022/01/18 09:49:08;;;;;;;3.12;1.10;;;;;;;-0.74;52.33;99513.73;1758843;80;21581;-64
2022/01/18 09:51:35;;;;;;;5.33;1.30;;;;;;;-0.82;52.18;99511.60;1761987;79;21042;-64
2022/01/18 09:54:02;;;;;;;1.60;0.88;;;;;;;-0.81;52.25;99530.11;1787221;80;21517;-65
2022/01/18 09:56:31;;;;;;;3.08;1.52;;;;;;;-0.81;52.02;99533.99;1704256;83;22589;-64
2022/01/18 09:58:57;;;;;;;5.15;1.87;;;;;;;-0.71;52.35;99546.50;1677518;84;21075;-65
2022/01/18 10:01:25;;;;;;;11.88;4.22;;;;;;;-0.60;52.04;99538.28;1741737;82;22199;-65
2022/01/18 10:03:52;;;;;;;25.82;9.75;;;;;;;-0.58;52.58;99535.70;1745664;80;21131;-63
2022/01/18 10:06:20;;;;;;;32.45;10.90;;;;;;;-0.69;53.68;99530.53;1768131;79;21418;-66
2022/01/18 10:08:48;;;;;;;48.60;17.15;;;;;;;-0.65;54.49;99525.35;1758044;79;21165;-67
2022/01/18 10:11:17;;;;;;;27.35;10.18;;;;;;;-0.76;54.40;99540.05;1741458;82;21047;-64
2022/01/18 10:13:46;;;;;;;38.75;10.00;;;;;;;-0.84;56.14;99552.10;1744340;79;21069;-65
2022/01/18 10:16:24;;;;;;;83.05;28.15;;;;;;;-0.94;56.68;99556.41;1748459;80;21080;-65
2022/01/18 10:19:00;;;;;;;13.22;3.83;;;;;;;-0.95;56.75;99549.94;1740686;82;21058;-63
2022/01/18 10:21:29;;;;;;;14.95;3.25;;;;;;;-0.86;54.00;99555.11;1768085;80;21174;-65
2022/01/18 10:24:23;;;;;;;34.75;8.08;;;;;;;-0.84;53.17;99570.20;1765877;81;21019;-64
2022/01/18 10:26:51;;;;;;;22.02;3.10;;;;;;;-0.89;54.33;99571.92;1766250;81;21070;-65
2022/01/18 10:29:22;;;;;;;38.13;4.25;;;;;;;-1.00;53.50;99571.05;1747897;80;21085;-64
2022/01/18 10:37:00;;;;;;;9.75;4.42;;;;;;;-1.17;55.10;99589.98;1741952;82;21049;-65
2022/01/18 10:39:32;;;;;;;43.15;14.33;;;;;;;-1.20;54.64;99578.34;1741539;82;21117;-65
2022/01/18 10:42:02;;;;;;;33.08;12.45;;;;;;;-1.31;58.04;99602.02;1744342;80;21154;-64
2022/01/18 10:44:31;;;;;;;23.77;9.13;;;;;;;-1.38;60.40;99605.42;1750386;79;21352;-63
2022/01/18 10:47:00;;;;;;;17.48;6.35;;;;;;;-1.45;56.40;99592.05;1755626;79;21784;-64
2022/01/18 10:49:45;;;;;;;16.75;5.58;;;;;;;-1.60;56.99;99606.65;1743999;79;21041;-64
2022/01/18 10:52:13;;;;;;;19.75;6.12;;;;;;;-1.69;56.19;99597.14;1741280;82;21053;-64
2022/01/18 10:54:45;;;;;;;9.03;4.03;;;;;;;-1.67;59.01;99613.94;1741385;79;21084;-65
2022/01/18 10:57:29;;;;;;;10.93;4.75;;;;;;;-1.56;56.88;99616.14;1760106;79;21084;-66
2022/01/18 11:00:16;;;;;;;45.40;15.85;;;;;;;-1.46;57.36;99614.88;1740654;82;21112;-63
2022/01/18 11:02:50;;;;;;;42.90;15.43;;;;;;;-1.45;58.87;99603.67;1747174;80;21033;-65
2022/01/18 11:05:20;;;;;;;88.47;28.87;;;;;;;-1.46;59.81;99613.59;1763222;80;21136;-65
2022/01/18 11:07:49;;;;;;;40.15;12.85;;;;;;;-1.42;63.45;99615.33;1747775;79;21077;-62
2022/01/18 11:10:23;;;;;;;7.47;3.22;;;;;;;-1.45;58.35;99615.30;1746860;80;21068;-65
2022/01/18 11:13:04;;;;;;;24.25;8.90;;;;;;;-1.58;57.35;99625.59;1771965;80;21876;-63
2022/01/18 11:15:28;;;;;;;20.20;7.78;;;;;;;-1.69;59.06;99618.23;1752450;79;21081;-66
2022/01/18 11:18:01;;;;;;;15.78;5.12;;;;;;;-1.72;58.33;99623.39;1757564;80;21559;-63
2022/01/18 11:20:31;;;;;;;7.05;3.10;;;;;;;-1.80;58.84;99643.13;1780163;80;21025;-65
2022/01/18 11:22:57;;;;;;;9.10;4.12;;;;;;;-1.82;58.83;99638.38;1774475;80;21105;-64
2022/01/18 11:25:24;;;;;;;13.58;4.97;;;;;;;-1.79;60.29;99647.45;1778036;80;21523;-64
2022/01/18 11:27:53;;;;;;;24.82;7.37;;;;;;;-1.85;59.18;99646.98;1775756;79;21096;-65
2022/01/18 11:30:22;;;;;;;41.18;13.50;;;;;;;-1.87;60.32;99656.86;1747014;82;21060;-66
2022/01/18 11:32:54;;;;;;;22.93;8.83;;;;;;;-1.86;61.03;99658.57;1763517;79;21052;-64
2022/01/18 11:35:45;;;;;;;38.83;13.40;;;;;;;-1.87;60.47;99663.31;1709057;82;21134;-65
2022/01/18 11:38:18;;;;;;;;;;;;;;;-1.93;62.14;99661.14;1774113;79;21148;-64
2022/01/18 11:40:48;;;;;;;17.85;6.95;;;;;;;-1.95;61.50;99667.15;1761876;79;20205;-65
2022/01/18 11:43:40;;;;;;;6.28;3.15;;;;;;;-1.98;61.52;99678.72;1711917;82;21147;-66
2022/01/18 11:46:34;;;;;;;6.80;2.50;;;;;;;-1.97;62.19;99672.29;1771812;79;21065;-65
2022/01/18 11:49:10;;;;;;;39.10;13.72;;;;;;;-1.84;60.59;99689.13;1765547;79;21065;-65
2022/01/18 11:51:45;;;;;;;66.20;22.75;;;;;;;-1.81;61.41;99685.30;1761651;79;21072;-65
2022/01/18 11:57:06;;;;;;;21.15;6.15;;;;;;;-1.84;61.41;99718.81;1705260;82;22113;-65
2022/01/18 11:59:39;;;;;;;22.17;7.42;;;;;;;-1.92;62.23;99712.33;1770832;80;21619;-66
2022/01/18 12:02:06;;;;;;;14.70;4.62;;;;;;;-1.98;61.04;99728.64;1769754;79;21359;-66
2022/01/18 12:07:37;;;;;;;12.37;5.00;;;;;;;-2.03;62.22;99738.48;1779273;79;21078;-66
2022/01/18 12:10:07;;;;;;;25.40;8.70;;;;;;;-1.95;60.91;99751.88;1757309;79;21069;-66
2022/01/18 12:12:49;;;;;;;104.83;33.95;;;;;;;-1.88;60.98;99750.65;1767873;79;21089;-65
2022/01/18 12:15:26;;;;;;;89.42;29.77;;;;;;;-1.86;64.24;99759.23;1764128;79;21076;-65
2022/01/18 12:18:04;;;;;;;54.88;21.05;;;;;;;-1.84;64.17;99774.31;1773309;79;21067;-66
2022/01/18 12:20:43;;;;;;;18.95;7.80;;;;;;;-1.86;64.16;99787.23;1758891;79;21015;-67
2022/01/18 12:23:21;;;;;;;11.00;4.53;;;;;;;-1.94;62.63;99784.56;1774708;80;21038;-64
2022/01/18 12:26:03;;;;;;;17.95;5.90;;;;;;;-1.98;62.08;99795.74;1751978;79;21072;-65
2022/01/18 12:34:41;;;;;;;31.85;10.88;;;;;;;-2.12;66.55;99811.50;1768138;79;21074;-65
2022/01/18 12:37:21;;;;;;;6.90;3.37;;;;;;;-2.18;64.65;99832.11;1768832;79;21077;-66
2022/01/18 12:39:57;;;;;;;17.97;6.77;;;;;;;-2.26;63.46;99823.41;1760471;79;21534;-65
2022/01/18 12:45:15;;;;;;;13.98;3.37;;;;;;;-2.08;62.27;99808.54;1762037;79;21818;-66
2022/01/18 12:47:48;;;;;;;75.52;21.45;;;;;;;-2.10;62.07;99793.03;1748736;80;21537;-64
2022/01/18 12:50:23;;;;;;;73.42;26.25;;;;;;;-2.27;64.62;99815.25;1749565;80;21608;-65
2022/01/18 12:52:53;;;;;;;23.22;7.92;;;;;;;-2.35;64.94;99820.31;1752588;80;21088;-65
2022/01/18 12:55:41;;;;;;;12.47;4.92;;;;;;;-2.33;63.78;99817.33;1773438;80;21010;-64
2022/01/18 12:58:16;;;;;;;10.90;4.50;;;;;;;-2.32;61.88;99828.95;1765854;80;21159;-65
2022/01/18 13:00:55;;;;;;;9.00;3.27;;;;;;;-2.27;62.11;99837.17;1769581;80;21054;-66
2022/01/18 13:03:33;;;;;;;12.37;5.33;;;;;;;-2.29;61.77;99841.45;1765493;80;21895;-66
2022/01/18 13:06:07;;;;;;;29.25;10.48;;;;;;;-2.30;62.40;99843.57;1768331;80;21062;-67
2022/01/18 13:08:50;;;;;;;24.65;8.95;;;;;;;-2.37;63.45;99824.19;1762720;80;21072;-64
2022/01/18 13:11:24;;;;;;;59.50;18.70;;;;;;;-2.41;63.45;99840.47;1770356;80;22111;-64